Time;durP1;ratioP1;P1;durP2;ratioP2;P2;SDS_P1;SDS_P2;PMS_P1;PMS_P2;Temp;Humidity;BMP_temperature;BMP_pressure;BME280_temperature;BME280_humidity;BME280_pressure;Samples;Min_cycle;Max_cycle;Signal;HPM_P1;HPM_P2
2022/12/24 00:00:35;;;;;;;28.10;7.82;;;;;;;;;;5005698;28;20214;-71
2022/12/24 00:03:01;;;;;;;33.72;8.20;;;;;;;;;;5006155;28;20186;-72
2022/12/24 00:05:26;;;;;;;27.77;8.45;;;;;;;;;;5008441;28;20647;-71
2022/12/24 00:07:52;;;;;;;34.00;8.52;;;;;;;;;;5019081;28;20202;-69
2022/12/24 00:10:17;;;;;;;27.98;7.65;;;;;;;;;;5013617;28;20193;-70
2022/12/24 00:12:42;;;;;;;34.53;8.15;;;;;;;;;;5011268;28;20241;-69
2022/12/24 00:15:08;;;;;;;36.58;8.00;;;;;;;;;;5021705;28;20248;-70
2022/12/24 00:17:34;;;;;;;36.67;8.30;;;;;;;;;;5010943;28;20186;-68
2022/12/24 00:19:59;;;;;;;23.63;6.55;;;;;;;;;;5007743;28;20192;-69
2022/12/24 00:22:25;;;;;;;33.58;7.80;;;;;;;;;;5004552;28;20231;-68
2022/12/24 00:24:50;;;;;;;29.33;6.43;;;;;;;;;;5006577;28;20229;-68
2022/12/24 00:27:16;;;;;;;33.65;6.13;;;;;;;;;;5008059;28;20210;-69
2022/12/24 00:29:41;;;;;;;35.05;8.10;;;;;;;;;;4999765;28;20222;-68
2022/12/24 00:32:09;;;;;;;29.33;6.85;;;;;;;;;;5000943;28;20228;-68
2022/12/24 00:34:35;;;;;;;32.35;6.10;;;;;;;;;;5006394;28;20198;-68
2022/12/24 00:37:01;;;;;;;34.60;6.20;;;;;;;;;;5007906;28;20191;-68
2022/12/24 00:39:26;;;;;;;29.48;5.75;;;;;;;;;;5008362;28;20205;-68
2022/12/24 00:41:51;;;;;;;26.63;6.32;;;;;;;;;;5005733;28;20201;-69
2022/12/24 00:44:17;;;;;;;37.65;6.40;;;;;;;;;;5011329;28;20194;-69
2022/12/24 00:46:42;;;;;;;35.80;6.70;;;;;;;;;;4994621;28;20198;-69
2022/12/24 00:49:10;;;;;;;35.03;6.22;;;;;;;;;;5008785;28;20214;-69
2022/12/24 00:51:35;;;;;;;28.65;5.07;;;;;;;;;;5001058;28;20223;-68
2022/12/24 00:54:01;;;;;;;32.50;5.85;;;;;;;;;;5008157;28;20193;-68
2022/12/24 00:56:27;;;;;;;32.42;5.75;;;;;;;;;;5000673;28;20219;-69
2022/12/24 00:58:52;;;;;;;29.33;5.53;;;;;;;;;;5009036;28;20248;-68
2022/12/24 01:01:19;;;;;;;35.83;5.22;;;;;;;;;;5016845;28;20264;-68
2022/12/24 01:03:44;;;;;;;34.50;5.53;;;;;;;;;;4998997;28;20286;-68
2022/12/24 01:06:15;;;;;;;30.45;5.35;;;;;;;;;;5007667;28;20295;-68
2022/12/24 01:08:41;;;;;;;33.80;5.15;;;;;;;;;;5006353;28;20305;-69
2022/12/24 01:11:08;;;;;;;34.67;5.70;;;;;;;;;;4998643;28;20218;-69
2022/12/24 01:13:34;;;;;;;33.25;5.05;;;;;;;;;;5000405;28;20713;-68
2022/12/24 01:16:00;;;;;;;37.40;5.43;;;;;;;;;;5003143;28;20182;-69
2022/12/24 01:18:25;;;;;;;38.78;4.50;;;;;;;;;;4998690;28;20196;-69
2022/12/24 01:20:59;;;;;;;37.85;4.80;;;;;;;;;;4997771;28;20556;-69
2022/12/24 01:23:25;;;;;;;34.10;5.20;;;;;;;;;;5006175;28;20292;-68
2022/12/24 01:25:50;;;;;;;33.67;4.82;;;;;;;;;;4995594;28;20210;-69
2022/12/24 01:28:15;;;;;;;29.88;4.43;;;;;;;;;;5018238;28;20190;-68
2022/12/24 01:30:41;;;;;;;39.55;5.35;;;;;;;;;;5004463;28;20206;-69
2022/12/24 01:33:06;;;;;;;38.70;5.22;;;;;;;;;;4998026;28;20186;-68
2022/12/24 01:35:32;;;;;;;33.55;5.30;;;;;;;;;;5002801;28;20194;-69
2022/12/24 01:37:57;;;;;;;31.02;4.57;;;;;;;;;;5000313;28;20234;-69
2022/12/24 01:43:23;;;;;;;32.15;5.80;;;;;;;;;;5000940;28;20222;-69
2022/12/24 01:45:56;;;;;;;37.03;4.90;;;;;;;;;;5003811;28;20237;-68
2022/12/24 01:48:36;;;;;;;29.63;4.55;;;;;;;;;;5001972;28;20662;-68
2022/12/24 01:51:11;;;;;;;28.95;5.13;;;;;;;;;;5000645;28;20182;-69
2022/12/24 01:53:38;;;;;;;32.88;4.13;;;;;;;;;;5009243;28;20197;-68
2022/12/24 01:56:05;;;;;;;28.50;4.57;;;;;;;;;;5006654;28;20206;-68
2022/12/24 01:58:32;;;;;;;28.83;4.57;;;;;;;;;;5000531;28;20578;-68
2022/12/24 02:00:57;;;;;;;38.58;5.80;;;;;;;;;;5006477;28;20211;-68
2022/12/24 02:03:23;;;;;;;32.30;5.28;;;;;;;;;;5008169;28;20617;-69
2022/12/24 02:05:51;;;;;;;35.72;5.18;;;;;;;;;;5006089;28;20949;-68
2022/12/24 02:08:17;;;;;;;33.17;4.97;;;;;;;;;;5010025;28;20740;-68
2022/12/24 02:10:44;;;;;;;46.65;7.63;;;;;;;;;;5009879;28;20187;-68
2022/12/24 02:13:11;;;;;;;29.45;4.63;;;;;;;;;;5008273;28;20304;-68
2022/12/24 02:16:07;;;;;;;38.08;5.10;;;;;;;;;;5007426;28;20191;-68
2022/12/24 02:18:37;;;;;;;41.45;5.60;;;;;;;;;;4998537;28;20646;-68
2022/12/24 02:21:23;;;;;;;34.08;5.22;;;;;;;;;;5006436;28;20602;-68
2022/12/24 02:24:02;;;;;;;33.33;5.32;;;;;;;;;;5000156;28;20233;-68
2022/12/24 02:26:59;;;;;;;38.15;5.50;;;;;;;;;;5007618;28;20214;-68
2022/12/24 02:29:56;;;;;;;29.98;4.45;;;;;;;;;;5008544;28;20221;-68
2022/12/24 02:32:54;;;;;;;35.25;5.15;;;;;;;;;;5007173;28;20195;-68
2022/12/24 02:35:29;;;;;;;40.10;5.25;;;;;;;;;;4997783;28;20282;-69
2022/12/24 02:38:01;;;;;;;33.58;5.28;;;;;;;;;;5009877;28;20214;-68
2022/12/24 02:40:32;;;;;;;34.10;4.63;;;;;;;;;;5004849;28;20671;-68
2022/12/24 02:43:03;;;;;;;42.08;5.45;;;;;;;;;;5005439;28;20604;-68
2022/12/24 02:45:31;;;;;;;33.33;4.57;;;;;;;;;;5000543;28;20239;-68
2022/12/24 02:47:57;;;;;;;35.08;4.85;;;;;;;;;;5006906;28;20556;-68
2022/12/24 02:50:23;;;;;;;42.38;5.88;;;;;;;;;;5006924;28;20280;-67
2022/12/24 02:52:49;;;;;;;38.92;5.43;;;;;;;;;;5006310;28;20657;-68
2022/12/24 02:55:43;;;;;;;39.72;5.20;;;;;;;;;;5001986;28;20210;-69
2022/12/24 02:58:25;;;;;;;31.98;5.60;;;;;;;;;;4997241;28;20211;-68
2022/12/24 03:00:50;;;;;;;34.33;5.30;;;;;;;;;;4999642;28;20210;-68
2022/12/24 03:03:37;;;;;;;34.13;5.32;;;;;;;;;;4997799;28;20617;-68
2022/12/24 03:06:17;;;;;;;37.08;4.90;;;;;;;;;;5008594;28;20237;-68
2022/12/24 03:09:08;;;;;;;37.83;5.28;;;;;;;;;;4999876;28;20206;-68
2022/12/24 03:11:37;;;;;;;40.28;5.68;;;;;;;;;;5003429;28;20599;-68
2022/12/24 03:14:03;;;;;;;37.05;5.13;;;;;;;;;;4996739;28;20187;-68
2022/12/24 03:16:28;;;;;;;34.72;5.35;;;;;;;;;;5008989;28;20480;-68
2022/12/24 03:18:57;;;;;;;38.20;5.63;;;;;;;;;;5002620;28;20246;-69
2022/12/24 03:21:33;;;;;;;45.70;5.97;;;;;;;;;;5014482;28;20684;-68
2022/12/24 03:23:58;;;;;;;34.05;6.45;;;;;;;;;;4996639;28;20198;-68
2022/12/24 03:26:27;;;;;;;36.88;5.25;;;;;;;;;;5007100;28;20276;-68
2022/12/24 03:28:53;;;;;;;38.60;5.60;;;;;;;;;;4996705;28;20191;-68
2022/12/24 03:31:19;;;;;;;37.40;5.50;;;;;;;;;;4996993;28;20197;-67
2022/12/24 03:33:45;;;;;;;39.83;6.13;;;;;;;;;;4999207;28;20638;-68
2022/12/24 03:36:11;;;;;;;38.30;5.20;;;;;;;;;;5002773;28;20226;-68
2022/12/24 03:38:36;;;;;;;47.05;5.93;;;;;;;;;;5004776;28;20221;-68
2022/12/24 03:41:02;;;;;;;47.83;6.28;;;;;;;;;;5008539;28;20297;-68
2022/12/24 03:43:28;;;;;;;33.53;5.35;;;;;;;;;;5006074;28;20201;-68
2022/12/24 03:45:53;;;;;;;41.53;5.47;;;;;;;;;;4998127;28;20685;-68
2022/12/24 03:48:19;;;;;;;36.67;5.80;;;;;;;;;;5007322;28;20206;-68
2022/12/24 03:50:44;;;;;;;41.85;5.70;;;;;;;;;;5006759;28;20198;-68
2022/12/24 03:53:09;;;;;;;43.05;5.70;;;;;;;;;;5009619;28;20194;-68
2022/12/24 03:55:35;;;;;;;36.55;5.80;;;;;;;;;;5006091;28;21069;-68
2022/12/24 03:58:00;;;;;;;39.55;6.05;;;;;;;;;;5008966;28;20226;-68
2022/12/24 04:00:25;;;;;;;38.20;6.15;;;;;;;;;;4994523;28;20393;-68
2022/12/24 04:02:52;;;;;;;41.95;5.47;;;;;;;;;;4986644;28;20868;-68
2022/12/24 04:05:19;;;;;;;48.20;6.90;;;;;;;;;;4998203;28;20716;-68
2022/12/24 04:07:45;;;;;;;35.08;5.10;;;;;;;;;;5005343;28;20190;-68
2022/12/24 04:10:11;;;;;;;41.85;5.88;;;;;;;;;;5005158;28;20193;-68
2022/12/24 04:12:37;;;;;;;41.35;5.25;;;;;;;;;;5007750;28;20198;-68
2022/12/24 04:15:03;;;;;;;36.88;5.53;;;;;;;;;;4998163;28;20635;-68
2022/12/24 04:17:28;;;;;;;41.08;6.47;;;;;;;;;;4996563;28;20630;-67
2022/12/24 04:19:54;;;;;;;35.47;4.78;;;;;;;;;;5007779;28;20197;-67
2022/12/24 04:22:19;;;;;;;51.88;5.88;;;;;;;;;;5000134;28;22421;-67
2022/12/24 04:24:45;;;;;;;42.80;5.63;;;;;;;;;;5011756;28;20191;-67
2022/12/24 04:27:12;;;;;;;44.72;6.80;;;;;;;;;;4996355;28;20215;-67
2022/12/24 04:29:38;;;;;;;31.55;5.35;;;;;;;;;;4999918;28;20203;-67
2022/12/24 04:32:03;;;;;;;41.53;7.20;;;;;;;;;;4999320;28;20201;-67
2022/12/24 04:34:29;;;;;;;29.52;5.82;;;;;;;;;;5004850;28;20219;-67
2022/12/24 04:36:54;;;;;;;36.80;6.75;;;;;;;;;;5004122;28;20639;-67
2022/12/24 04:39:19;;;;;;;40.08;6.18;;;;;;;;;;5005893;28;20201;-67
2022/12/24 04:41:45;;;;;;;42.95;6.68;;;;;;;;;;5004558;28;20194;-67
2022/12/24 04:44:10;;;;;;;39.00;5.30;;;;;;;;;;4996521;28;20199;-67
2022/12/24 04:46:35;;;;;;;46.08;5.35;;;;;;;;;;4999100;28;20202;-67
2022/12/24 04:49:01;;;;;;;30.98;5.03;;;;;;;;;;5006596;28;20686;-67
2022/12/24 04:51:27;;;;;;;39.67;5.72;;;;;;;;;;5001516;28;20202;-67
2022/12/24 04:53:54;;;;;;;40.65;5.20;;;;;;;;;;5000619;28;20761;-67
2022/12/24 04:56:26;;;;;;;37.35;5.57;;;;;;;;;;5008540;28;20361;-67
2022/12/24 04:58:51;;;;;;;37.88;5.15;;;;;;;;;;4998463;28;20202;-67
2022/12/24 05:01:20;;;;;;;32.38;5.93;;;;;;;;;;5005037;28;20628;-67
2022/12/24 05:03:46;;;;;;;40.45;5.13;;;;;;;;;;5001993;28;20669;-67
2022/12/24 05:06:14;;;;;;;30.08;4.60;;;;;;;;;;5010930;28;20214;-67
2022/12/24 05:08:40;;;;;;;30.88;5.13;;;;;;;;;;5004120;28;20662;-67
2022/12/24 05:11:06;;;;;;;32.20;4.43;;;;;;;;;;4996526;28;20245;-67
2022/12/24 05:13:31;;;;;;;45.97;5.47;;;;;;;;;;4996205;28;20252;-67
2022/12/24 05:15:57;;;;;;;39.95;5.95;;;;;;;;;;5000817;28;20186;-67
2022/12/24 05:18:22;;;;;;;33.88;5.63;;;;;;;;;;5000835;28;20198;-67
2022/12/24 05:20:48;;;;;;;36.22;6.68;;;;;;;;;;4998033;28;20456;-67
2022/12/24 05:28:43;;;;;;;49.25;6.53;;;;;;;;;;4999812;28;20190;-67
2022/12/24 05:31:08;;;;;;;43.28;7.68;;;;;;;;;;5006430;28;20264;-67
2022/12/24 05:33:34;;;;;;;41.47;6.30;;;;;;;;;;5004331;28;20190;-67
2022/12/24 05:35:59;;;;;;;39.92;6.85;;;;;;;;;;5016310;28;20650;-67
2022/12/24 05:38:24;;;;;;;47.33;7.13;;;;;;;;;;5007169;28;20297;-67
2022/12/24 05:40:50;;;;;;;44.33;6.78;;;;;;;;;;5013397;28;20218;-67
2022/12/24 05:43:15;;;;;;;40.30;6.75;;;;;;;;;;5010676;28;20237;-67
2022/12/24 05:45:41;;;;;;;47.03;7.80;;;;;;;;;;5008659;28;20713;-67
2022/12/24 05:48:06;;;;;;;38.60;7.20;;;;;;;;;;5011236;28;20194;-67
2022/12/24 05:50:32;;;;;;;44.28;7.68;;;;;;;;;;5003208;28;20286;-68
2022/12/24 05:52:58;;;;;;;39.03;6.93;;;;;;;;;;5012135;28;20638;-68
2022/12/24 05:55:23;;;;;;;39.13;7.28;;;;;;;;;;5008231;28;20317;-68
2022/12/24 05:57:49;;;;;;;42.45;7.70;;;;;;;;;;5006300;28;20625;-68
2022/12/24 06:00:14;;;;;;;35.90;8.63;;;;;;;;;;5006334;28;20260;-68
2022/12/24 06:02:40;;;;;;;41.17;7.75;;;;;;;;;;5008762;28;20195;-68
2022/12/24 06:05:05;;;;;;;54.78;9.00;;;;;;;;;;5005691;28;20195;-68
2022/12/24 06:07:30;;;;;;;45.25;8.85;;;;;;;;;;4999547;28;20210;-68
2022/12/24 06:09:56;;;;;;;42.00;9.57;;;;;;;;;;5007818;28;20669;-68
2022/12/24 06:12:21;;;;;;;46.72;8.45;;;;;;;;;;5006329;28;20286;-68
2022/12/24 06:14:47;;;;;;;47.55;8.57;;;;;;;;;;5009717;28;20305;-68
2022/12/24 06:17:12;;;;;;;48.78;9.60;;;;;;;;;;5006785;28;20194;-68
2022/12/24 06:19:37;;;;;;;40.85;8.60;;;;;;;;;;5000193;28;20188;-67
2022/12/24 06:22:03;;;;;;;48.00;8.95;;;;;;;;;;4999486;28;20330;-68
2022/12/24 06:24:28;;;;;;;45.40;10.70;;;;;;;;;;5006645;28;20595;-68
2022/12/24 06:26:53;;;;;;;39.60;9.55;;;;;;;;;;4998911;28;20217;-68
2022/12/24 06:29:19;;;;;;;59.45;10.38;;;;;;;;;;5005691;28;20210;-68
2022/12/24 06:31:44;;;;;;;42.70;9.50;;;;;;;;;;5003285;28;20719;-68
2022/12/24 06:34:09;;;;;;;44.85;9.80;;;;;;;;;;5005358;28;20199;-67
2022/12/24 06:36:35;;;;;;;47.30;9.60;;;;;;;;;;5000088;28;20278;-67
2022/12/24 06:39:00;;;;;;;43.47;9.50;;;;;;;;;;5016100;28;20618;-68
2022/12/24 06:41:26;;;;;;;42.17;9.00;;;;;;;;;;5013478;28;20210;-67
2022/12/24 06:43:52;;;;;;;44.67;9.88;;;;;;;;;;5016343;28;20673;-68
2022/12/24 06:46:18;;;;;;;47.60;10.88;;;;;;;;;;5005883;28;20662;-67
2022/12/24 06:48:44;;;;;;;45.22;9.85;;;;;;;;;;5010199;28;20596;-67
2022/12/24 06:51:10;;;;;;;48.20;10.60;;;;;;;;;;5004686;28;20194;-67
2022/12/24 06:53:35;;;;;;;43.97;8.52;;;;;;;;;;5016442;28;20279;-67
2022/12/24 06:56:05;;;;;;;42.85;9.30;;;;;;;;;;5018841;28;20768;-67
2022/12/24 06:58:32;;;;;;;41.67;9.00;;;;;;;;;;5021682;28;20190;-67
2022/12/24 07:01:03;;;;;;;45.03;9.52;;;;;;;;;;5025318;28;20289;-67
2022/12/24 07:03:29;;;;;;;48.08;10.05;;;;;;;;;;5019551;28;20670;-68
2022/12/24 07:05:55;;;;;;;42.80;9.00;;;;;;;;;;5018770;28;20735;-67
2022/12/24 07:08:20;;;;;;;40.90;9.02;;;;;;;;;;5027193;28;20182;-68
2022/12/24 07:10:48;;;;;;;40.00;9.00;;;;;;;;;;5014411;28;20183;-67
2022/12/24 07:13:13;;;;;;;38.90;8.43;;;;;;;;;;5012445;28;20650;-68
2022/12/24 07:15:39;;;;;;;38.60;8.93;;;;;;;;;;5019815;28;20187;-68
2022/12/24 07:18:04;;;;;;;42.45;9.32;;;;;;;;;;5024127;28;20558;-68
2022/12/24 07:20:30;;;;;;;37.03;8.95;;;;;;;;;;5021898;28;20248;-68
2022/12/24 07:22:55;;;;;;;41.85;9.35;;;;;;;;;;5021646;28;20561;-69
2022/12/24 07:25:20;;;;;;;41.75;9.18;;;;;;;;;;5014377;28;20210;-70
2022/12/24 07:27:46;;;;;;;42.70;9.32;;;;;;;;;;5018770;28;20182;-69
2022/12/24 07:30:11;;;;;;;44.72;9.13;;;;;;;;;;5016713;28;20227;-70
2022/12/24 07:32:37;;;;;;;44.03;9.95;;;;;;;;;;5014732;28;20248;-70
2022/12/24 07:35:02;;;;;;;51.70;9.85;;;;;;;;;;5014078;28;20204;-70
2022/12/24 07:37:28;;;;;;;46.80;10.52;;;;;;;;;;5016600;28;20183;-70
2022/12/24 07:39:53;;;;;;;45.88;10.32;;;;;;;;;;5012880;28;20182;-70
2022/12/24 07:42:18;;;;;;;46.45;9.18;;;;;;;;;;5011308;28;20626;-69
2022/12/24 07:44:44;;;;;;;40.60;9.32;;;;;;;;;;5018498;28;20186;-69
2022/12/24 07:47:09;;;;;;;50.88;10.27;;;;;;;;;;5014303;28;20206;-70
2022/12/24 07:49:35;;;;;;;45.60;9.90;;;;;;;;;;5015787;28;20645;-70
2022/12/24 07:52:01;;;;;;;42.70;9.27;;;;;;;;;;5014289;28;20186;-69
2022/12/24 07:54:27;;;;;;;43.83;8.77;;;;;;;;;;5017688;28;20213;-69
2022/12/24 07:56:52;;;;;;;47.03;9.00;;;;;;;;;;5014616;28;20221;-70
2022/12/24 07:59:17;;;;;;;41.35;8.73;;;;;;;;;;5015881;28;20284;-69
2022/12/24 08:01:44;;;;;;;42.17;8.05;;;;;;;;;;5012309;28;20613;-69
2022/12/24 08:04:09;;;;;;;52.15;8.77;;;;;;;;;;5018659;28;20668;-69
2022/12/24 08:06:35;;;;;;;43.28;8.82;;;;;;;;;;5016422;28;20205;-69
2022/12/24 08:09:00;;;;;;;41.97;9.05;;;;;;;;;;5016524;28;20278;-69
2022/12/24 08:11:25;;;;;;;38.55;8.18;;;;;;;;;;5018000;28;20194;-69
2022/12/24 08:13:51;;;;;;;36.20;8.13;;;;;;;;;;5016166;28;20206;-69
2022/12/24 08:16:16;;;;;;;52.35;8.57;;;;;;;;;;5014143;28;20190;-69
2022/12/24 08:18:42;;;;;;;47.03;9.32;;;;;;;;;;5021564;28;20735;-69
2022/12/24 08:21:08;;;;;;;46.75;8.40;;;;;;;;;;5016580;28;20229;-70
2022/12/24 08:23:34;;;;;;;41.95;8.63;;;;;;;;;;5019349;28;20336;-69
2022/12/24 08:25:59;;;;;;;41.30;7.65;;;;;;;;;;5015765;28;20622;-69
2022/12/24 08:28:25;;;;;;;50.72;8.80;;;;;;;;;;5005975;28;20207;-69
2022/12/24 08:30:51;;;;;;;52.85;8.15;;;;;;;;;;5020317;28;20573;-70
2022/12/24 08:33:16;;;;;;;40.47;8.43;;;;;;;;;;5019142;28;20204;-69
2022/12/24 08:36:08;;;;;;;37.80;7.55;;;;;;;;;;5018120;28;20635;-69
2022/12/24 08:38:33;;;;;;;42.72;7.57;;;;;;;;;;5010736;28;20207;-69
2022/12/24 08:40:59;;;;;;;50.33;8.55;;;;;;;;;;5019151;28;20186;-69
2022/12/24 08:43:25;;;;;;;38.92;7.85;;;;;;;;;;5017687;28;20195;-69
2022/12/24 08:45:51;;;;;;;40.35;7.57;;;;;;;;;;5021634;28;20755;-69
2022/12/24 08:48:16;;;;;;;45.92;6.85;;;;;;;;;;5023247;28;20194;-69
2022/12/24 08:50:42;;;;;;;44.47;8.13;;;;;;;;;;5018240;28;20190;-69
2022/12/24 08:53:08;;;;;;;54.03;8.70;;;;;;;;;;5023876;28;20197;-69
2022/12/24 08:55:33;;;;;;;45.22;8.10;;;;;;;;;;5013512;28;20658;-69
2022/12/24 08:57:59;;;;;;;48.00;7.85;;;;;;;;;;5018501;28;20190;-68
2022/12/24 09:00:25;;;;;;;43.60;7.90;;;;;;;;;;5022278;28;20359;-69
2022/12/24 09:02:51;;;;;;;50.97;8.68;;;;;;;;;;5009848;28;20604;-69
2022/12/24 09:05:16;;;;;;;40.90;7.20;;;;;;;;;;5003784;28;20190;-68
2022/12/24 09:07:42;;;;;;;43.35;7.22;;;;;;;;;;5017959;28;20547;-69
2022/12/24 09:10:08;;;;;;;42.58;9.13;;;;;;;;;;5015629;28;20206;-69
2022/12/24 09:12:34;;;;;;;41.33;7.63;;;;;;;;;;5006283;28;20281;-69
2022/12/24 09:14:59;;;;;;;45.38;7.78;;;;;;;;;;5012660;28;20310;-69
2022/12/24 09:17:24;;;;;;;38.25;6.82;;;;;;;;;;5019448;28;20194;-69
2022/12/24 09:19:50;;;;;;;40.50;8.82;;;;;;;;;;5014047;28;20273;-68
2022/12/24 09:22:15;;;;;;;46.50;7.13;;;;;;;;;;5013333;28;20226;-69
2022/12/24 09:24:41;;;;;;;41.85;7.93;;;;;;;;;;5012426;28;20529;-69
2022/12/24 09:27:06;;;;;;;40.38;7.55;;;;;;;;;;5021366;28;20245;-69
2022/12/24 09:29:32;;;;;;;43.45;8.45;;;;;;;;;;5014303;28;20501;-69
2022/12/24 09:31:57;;;;;;;40.90;7.63;;;;;;;;;;5020056;28;20194;-69
2022/12/24 09:34:24;;;;;;;38.08;7.05;;;;;;;;;;5021372;28;20205;-68
2022/12/24 09:36:50;;;;;;;42.85;7.30;;;;;;;;;;5019468;28;20189;-68
2022/12/24 09:39:16;;;;;;;42.03;7.00;;;;;;;;;;5020048;28;20651;-68
2022/12/24 09:42:16;;;;;;;40.08;6.55;;;;;;;;;;5007230;28;20198;-69
2022/12/24 09:44:50;;;;;;;38.72;7.57;;;;;;;;;;5004694;28;20198;-69
2022/12/24 09:47:21;;;;;;;48.13;7.15;;;;;;;;;;5007433;28;20677;-69
2022/12/24 09:49:50;;;;;;;35.50;6.47;;;;;;;;;;5007480;28;20594;-68
2022/12/24 09:52:27;;;;;;;41.40;8.00;;;;;;;;;;5012530;28;20202;-68
2022/12/24 09:55:11;;;;;;;45.30;7.65;;;;;;;;;;5008314;28;20187;-68
2022/12/24 09:57:39;;;;;;;33.63;7.05;;;;;;;;;;5008099;28;20185;-69
2022/12/24 10:00:17;;;;;;;43.08;7.97;;;;;;;;;;5016517;28;20214;-68
2022/12/24 10:02:43;;;;;;;37.90;6.82;;;;;;;;;;5017591;28;20625;-68
2022/12/24 10:05:13;;;;;;;42.53;7.43;;;;;;;;;;5019034;28;20279;-69
2022/12/24 10:08:05;;;;;;;34.05;6.97;;;;;;;;;;5015200;28;20217;-68
2022/12/24 10:10:52;;;;;;;38.83;7.05;;;;;;;;;;5018444;28;20544;-68
2022/12/24 10:13:25;;;;;;;38.33;7.05;;;;;;;;;;5017566;28;20626;-69
2022/12/24 10:16:12;;;;;;;33.53;7.38;;;;;;;;;;5017623;28;20222;-68
2022/12/24 10:18:52;;;;;;;36.00;7.68;;;;;;;;;;5019996;28;20641;-68
2022/12/24 10:21:56;;;;;;;30.65;6.38;;;;;;;;;;5016264;28;20205;-68
2022/12/24 10:24:42;;;;;;;35.55;6.45;;;;;;;;;;5000362;28;20311;-68
2022/12/24 10:27:13;;;;;;;36.30;6.78;;;;;;;;;;5017956;28;20222;-68
2022/12/24 10:29:53;;;;;;;35.83;6.72;;;;;;;;;;5015062;28;20190;-68
2022/12/24 10:32:25;;;;;;;36.17;6.55;;;;;;;;;;5020396;28;20189;-68
2022/12/24 10:35:00;;;;;;;38.40;7.15;;;;;;;;;;5019952;28;20210;-68
2022/12/24 10:37:27;;;;;;;44.20;6.90;;;;;;;;;;5019538;28;20196;-68
2022/12/24 10:39:54;;;;;;;45.35;7.28;;;;;;;;;;5021664;28;20209;-68
2022/12/24 10:42:22;;;;;;;31.65;6.38;;;;;;;;;;5014999;28;20527;-68
2022/12/24 10:44:56;;;;;;;35.58;7.65;;;;;;;;;;5020021;28;20309;-68
2022/12/24 10:47:22;;;;;;;48.65;8.13;;;;;;;;;;5017461;28;20583;-68
2022/12/24 10:50:00;;;;;;;44.95;7.53;;;;;;;;;;5010724;28;20524;-69
2022/12/24 10:52:31;;;;;;;39.75;7.32;;;;;;;;;;5014805;28;20198;-69
2022/12/24 10:55:20;;;;;;;46.15;6.95;;;;;;;;;;5015365;28;20269;-68
2022/12/24 10:58:05;;;;;;;35.65;6.35;;;;;;;;;;5015038;28;20783;-69
2022/12/24 11:00:32;;;;;;;41.72;6.93;;;;;;;;;;5017189;28;20213;-69
2022/12/24 11:03:12;;;;;;;42.42;6.45;;;;;;;;;;5016191;28;20191;-69
2022/12/24 11:05:39;;;;;;;35.47;6.22;;;;;;;;;;5008387;28;20202;-68
2022/12/24 11:08:12;;;;;;;31.88;6.75;;;;;;;;;;5004187;28;20194;-68
2022/12/24 11:10:41;;;;;;;42.92;6.80;;;;;;;;;;5010571;28;20670;-69
2022/12/24 11:13:23;;;;;;;32.92;5.70;;;;;;;;;;5013754;28;20186;-68
2022/12/24 11:15:58;;;;;;;37.75;6.28;;;;;;;;;;5016612;28;20199;-68
2022/12/24 11:18:24;;;;;;;31.20;5.97;;;;;;;;;;5020277;28;20729;-69
2022/12/24 11:20:51;;;;;;;28.90;5.47;;;;;;;;;;5015974;28;20268;-69
2022/12/24 11:23:17;;;;;;;39.20;6.20;;;;;;;;;;5013396;28;20234;-68
2022/12/24 11:25:48;;;;;;;30.40;5.70;;;;;;;;;;5017976;28;20210;-67
2022/12/24 11:28:26;;;;;;;36.03;5.43;;;;;;;;;;5020598;28;20193;-67
2022/12/24 11:31:05;;;;;;;26.90;5.22;;;;;;;;;;5017322;28;20487;-68
2022/12/24 11:33:31;;;;;;;31.90;6.07;;;;;;;;;;5014659;28;20197;-69
2022/12/24 11:36:01;;;;;;;30.83;6.10;;;;;;;;;;5022169;28;20181;-67
2022/12/24 11:38:28;;;;;;;35.53;5.78;;;;;;;;;;5012407;28;20194;-68
2022/12/24 11:41:10;;;;;;;33.40;6.25;;;;;;;;;;5020326;28;20244;-67
2022/12/24 11:43:47;;;;;;;27.63;5.47;;;;;;;;;;5016298;28;20187;-67
2022/12/24 11:46:35;;;;;;;32.67;7.38;;;;;;;;;;4996650;28;20776;-68
2022/12/24 11:49:10;;;;;;;26.00;5.82;;;;;;;;;;5007706;28;20195;-68
2022/12/24 11:51:35;;;;;;;28.27;5.15;;;;;;;;;;5017789;28;20268;-67
2022/12/24 11:54:14;;;;;;;31.77;6.25;;;;;;;;;;5018219;28;20321;-68
2022/12/24 11:56:44;;;;;;;33.30;6.35;;;;;;;;;;5017408;28;20197;-68
2022/12/24 11:59:31;;;;;;;33.70;6.50;;;;;;;;;;5017190;28;21501;-67
2022/12/24 12:01:57;;;;;;;29.98;5.20;;;;;;;;;;5015512;28;20206;-68
2022/12/24 12:04:29;;;;;;;34.40;6.30;;;;;;;;;;5018907;28;20191;-68
2022/12/24 12:06:59;;;;;;;33.20;5.93;;;;;;;;;;5021569;28;20608;-68
2022/12/24 12:09:30;;;;;;;26.38;5.53;;;;;;;;;;5020241;28;20186;-68
2022/12/24 12:12:04;;;;;;;27.08;5.75;;;;;;;;;;5016770;28;20190;-68
2022/12/24 12:14:37;;;;;;;25.23;5.55;;;;;;;;;;5016807;28;20670;-68
2022/12/24 12:17:29;;;;;;;27.13;5.85;;;;;;;;;;5020143;28;20194;-68
2022/12/24 12:20:16;;;;;;;26.75;5.43;;;;;;;;;;5021735;28;20277;-68
2022/12/24 12:22:50;;;;;;;18.27;4.90;;;;;;;;;;5017152;28;20233;-68
2022/12/24 12:25:21;;;;;;;26.88;5.15;;;;;;;;;;5020271;28;20186;-68
2022/12/24 12:27:50;;;;;;;28.50;5.95;;;;;;;;;;5020134;28;20198;-68
2022/12/24 12:30:19;;;;;;;28.90;5.85;;;;;;;;;;5021360;28;20710;-68
2022/12/24 12:33:09;;;;;;;27.25;5.70;;;;;;;;;;5018963;28;20186;-68
2022/12/24 12:35:40;;;;;;;27.73;5.57;;;;;;;;;;5021397;28;20526;-68
2022/12/24 12:38:20;;;;;;;27.27;5.95;;;;;;;;;;5017710;28;20261;-68
2022/12/24 12:40:48;;;;;;;24.52;5.38;;;;;;;;;;5015941;28;20186;-68
2022/12/24 12:43:39;;;;;;;24.30;5.68;;;;;;;;;;5018500;28;20214;-68
2022/12/24 12:46:29;;;;;;;29.92;5.40;;;;;;;;;;5024188;28;20276;-68
2022/12/24 12:49:11;;;;;;;28.30;6.53;;;;;;;;;;5021247;28;20725;-68
2022/12/24 12:51:58;;;;;;;30.30;6.45;;;;;;;;;;5018260;28;20187;-68
2022/12/24 12:54:54;;;;;;;21.25;5.05;;;;;;;;;;5025804;28;20265;-68
2022/12/24 12:57:24;;;;;;;25.10;5.13;;;;;;;;;;5008045;28;20259;-67
2022/12/24 12:59:55;;;;;;;22.35;4.55;;;;;;;;;;5011483;28;20199;-68
2022/12/24 13:02:39;;;;;;;29.52;5.22;;;;;;;;;;5008396;28;20182;-68
2022/12/24 13:05:32;;;;;;;27.33;5.38;;;;;;;;;;5005498;28;20191;-68
2022/12/24 13:07:57;;;;;;;26.00;5.55;;;;;;;;;;4996948;28;20991;-67
2022/12/24 13:10:29;;;;;;;29.67;6.32;;;;;;;;;;5006622;28;20201;-67
2022/12/24 13:13:23;;;;;;;26.23;6.30;;;;;;;;;;5003925;28;20194;-67
2022/12/24 13:15:57;;;;;;;34.95;7.97;;;;;;;;;;5003324;28;20685;-67
2022/12/24 13:18:25;;;;;;;29.45;8.07;;;;;;;;;;5005935;28;20282;-66
2022/12/24 13:20:52;;;;;;;29.48;6.28;;;;;;;;;;5018316;28;20218;-68
2022/12/24 13:23:25;;;;;;;29.17;7.20;;;;;;;;;;5017776;28;20236;-67
2022/12/24 13:25:53;;;;;;;27.15;6.13;;;;;;;;;;5015227;28;20626;-67
2022/12/24 13:28:19;;;;;;;27.92;6.35;;;;;;;;;;5004210;28;20618;-68
2022/12/24 13:30:45;;;;;;;33.20;6.80;;;;;;;;;;4308533;28;10000789;-67
2022/12/24 13:33:32;;;;;;;25.85;5.63;;;;;;;;;;5006500;28;20319;-67
2022/12/24 13:36:01;;;;;;;20.50;6.05;;;;;;;;;;5008233;28;20186;-67
2022/12/24 13:38:30;;;;;;;35.90;7.05;;;;;;;;;;4992059;28;20187;-68
2022/12/24 13:41:30;;;;;;;24.40;6.45;;;;;;;;;;5004448;28;20241;-67
2022/12/24 13:44:05;;;;;;;29.30;7.28;;;;;;;;;;5008156;28;20547;-67
2022/12/24 13:47:17;;;;;;;27.90;10.10;;;;;;;;;;5004510;28;20643;-68
2022/12/24 13:49:46;;;;;;;32.75;10.35;;;;;;;;;;5010133;28;20190;-67
2022/12/24 13:52:13;;;;;;;27.92;8.07;;;;;;;;;;5008449;28;20190;-68
2022/12/24 13:54:41;;;;;;;33.08;6.57;;;;;;;;;;5011705;28;21242;-67
2022/12/24 13:57:29;;;;;;;40.63;11.15;;;;;;;;;;5007920;28;20737;-67
2022/12/24 14:00:22;;;;;;;33.22;9.23;;;;;;;;;;5029051;28;20218;-67
2022/12/24 14:02:56;;;;;;;37.28;10.65;;;;;;;;;;5016251;28;20713;-67
2022/12/24 14:05:36;;;;;;;27.65;6.95;;;;;;;;;;5018269;28;20227;-67
2022/12/24 14:08:05;;;;;;;38.58;13.48;;;;;;;;;;5004616;28;20561;-67
2022/12/24 14:10:37;;;;;;;26.17;6.70;;;;;;;;;;5019636;28;20188;-67
2022/12/24 14:13:08;;;;;;;24.98;5.28;;;;;;;;;;5012932;28;20403;-67
2022/12/24 14:15:44;;;;;;;17.65;3.72;;;;;;;;;;5015871;28;20193;-67
2022/12/24 14:18:15;;;;;;;24.92;6.57;;;;;;;;;;5015578;28;20198;-67
2022/12/24 14:20:41;;;;;;;18.38;4.38;;;;;;;;;;5014950;28;20264;-68
2022/12/24 14:23:43;;;;;;;25.63;4.10;;;;;;;;;;5006842;28;20443;-67
2022/12/24 14:26:15;;;;;;;15.95;2.85;;;;;;;;;;5007501;28;20317;-67
2022/12/24 14:28:46;;;;;;;18.40;3.28;;;;;;;;;;5017059;28;20624;-67
2022/12/24 14:31:17;;;;;;;23.05;3.35;;;;;;;;;;5013922;28;20199;-67
2022/12/24 14:33:43;;;;;;;17.83;3.03;;;;;;;;;;5012019;28;20269;-67
2022/12/24 14:36:09;;;;;;;18.65;3.47;;;;;;;;;;5016255;28;20279;-69
2022/12/24 14:38:34;;;;;;;19.35;3.78;;;;;;;;;;5007278;28;20191;-67
2022/12/24 14:41:13;;;;;;;17.27;3.22;;;;;;;;;;5012571;28;20201;-69
2022/12/24 14:44:04;;;;;;;25.90;4.15;;;;;;;;;;5012399;28;20658;-67
2022/12/24 14:47:20;;;;;;;23.58;3.95;;;;;;;;;;5014197;28;20222;-68
2022/12/24 14:49:48;;;;;;;17.52;3.95;;;;;;;;;;4993277;28;20221;-68
2022/12/24 14:52:22;;;;;;;20.77;3.95;;;;;;;;;;5007772;28;20191;-67
2022/12/24 14:54:48;;;;;;;19.60;3.85;;;;;;;;;;5011662;28;20195;-68